Home > Products > Valid Products > MTR

000
SAUS45 KMSO 220853
MTRP69
METAR KP69 220852Z AUTO 00000KT 08/06 A3010 RMK AO1 SLP195 T00780061
51002





000
SAUS45 KMSO 220754
MTRP69
METAR KP69 220752Z AUTO VRB03KT 08/07 A3010 RMK AO1 SLP194 T00830067
401330083





000
SAUS45 KMSO 220653
MTRP69
METAR KP69 220652Z AUTO 24004KT 08/07 A3009 RMK AO1 SLP193 T00830067





000
SAUS45 KMSO 220553
MTRP69
METAR KP69 220552Z AUTO 00000KT 08/07 A3009 RMK AO1 SLP192 60001
T00830072 10100 20083 53004





000
SAUS45 KMSO 220553
MTRP69
METAR KP69 220552Z AUTO 00000KT 08/07 A3009 RMK AO1 SLP192 60001
T00830072 10100 20083 53004





000
SAUS45 KMSO 220454
MTRP69
METAR KP69 220452Z AUTO 00000KT 09/08 A3008 RMK AO1 SLP189 T00890078





000
SAUS45 KMSO 220454
MTRP69
METAR KP69 220452Z AUTO 00000KT 09/08 A3008 RMK AO1 SLP189 T00890078





000
SAUS45 KMSO 220354
MTRP69
METAR KP69 220352Z AUTO 00000KT 09/08 A3008 RMK AO1 SLP188 T00890083





000
SAUS45 KMSO 220254
MTRP69
METAR KP69 220252Z AUTO 00000KT 09/08 A3007 RMK AO1 SLP188 60001
T00890083 53006





000
SAUS45 KMSO 220254
MTRP69
METAR KP69 220252Z AUTO 00000KT 09/08 A3007 RMK AO1 SLP188 60001
T00890083 53006





000
SAUS45 KMSO 220154
MTRP69
METAR KP69 220152Z AUTO 00000KT 09/08 A3007 RMK AO1 SLP186 T00940083





000
SAUS45 KMSO 220154
MTRP69
METAR KP69 220152Z AUTO 00000KT 09/08 A3007 RMK AO1 SLP186 T00940083





000
SAUS45 KMSO 220054
MTRP69
METAR KP69 220052Z AUTO 00000KT 09/09 A3005 RMK AO1 SLP180 P0001
T00940089





000
SAUS45 KMSO 212354
MTRP69
METAR KP69 212352Z AUTO 00000KT 09/09 A3006 RMK AO1 SLP180 P0008
60026 T00940089 10122 20094 53017





000
SAUS45 KMSO 212254
MTRP69
METAR KP69 212252Z AUTO VRB03KT 10/09 A3003 RMK AO1 SLP172 P0008
T01000094





000
SAUS45 KMSO 212254
MTRP69
METAR KP69 212252Z AUTO VRB03KT 10/09 A3003 RMK AO1 SLP172 P0008
T01000094





000
SAUS45 KMSO 212154
MTRP69
METAR KP69 212152Z AUTO 00000KT 11/09 A3002 RMK AO1 SLP165 P0005
T01060094





000
SAUS45 KMSO 212154
MTRP69
METAR KP69 212152Z AUTO 00000KT 11/09 A3002 RMK AO1 SLP165 P0005
T01060094





000
SAUS45 KMSO 212054
MTRP69
METAR KP69 212052Z AUTO VRB03KT 11/09 A3000 RMK AO1 SLP158 60005
T01110094 52007





000
SAUS45 KMSO 211954
MTRP69
METAR KP69 211952Z AUTO 00000KT 12/10 A2999 RMK AO1 SLP154 T01170100





000
SAUS45 KMSO 211853
MTRP69
METAR KP69 211852Z AUTO 00000KT 11/09 A2999 RMK AO1 SLP155 P0005
T01060094





000
SAUS45 KMSO 211754
MTRP69
METAR KP69 211752Z AUTO 00000KT 11/09 A2998 RMK AO1 SLP152 P0001
60012 T01060094 10106 20100 53020





000
SAUS45 KMSO 211653
MTRP69
METAR KP69 211652Z AUTO 00000KT 11/09 A2996 RMK AO1 SLP145 P0002
T01060094





000
SAUS45 KMSO 211653
MTRP69
METAR KP69 211652Z AUTO 00000KT 11/09 A2996 RMK AO1 SLP145 P0002
T01060094





000
SAUS45 KMSO 211553
MTRP69
METAR KP69 211552Z AUTO 00000KT 10/09 A2994 RMK AO1 SLP140 P0003
T01000094





000
SAUS45 KMSO 211553
MTRP69
METAR KP69 211552Z AUTO 00000KT 10/09 A2994 RMK AO1 SLP140 P0003
T01000094





000
SAUS45 KMSO 211453
MTRP69
METAR KP69 211452Z AUTO 00000KT 10/09 A2992 RMK AO1 SLP131 P0002
60006 T01000094 53005





000
SAUS45 KMSO 211354
MTRP69
METAR KP69 211352Z AUTO 00000KT 10/09 A2991 RMK AO1 SLP126 P0002
T01000094





000
SAUS45 KMSO 211254
MTRP69
METAR KP69 211252Z AUTO 00000KT 10/09 A2990 RMK AO1 SLP122 P0002
T01000094





000
SAUS45 KMSO 211154
MTRP69
METAR KP69 211152Z AUTO 00000KT 10/09 A2990 RMK AO1 SLP123 P0010
60013 70013 T01000094 10133 20100 53005





000
SAUS45 KMSO 211154
MTRP69
METAR KP69 211152Z AUTO 00000KT 10/09 A2990 RMK AO1 SLP123 P0010
60013 70013 T01000094 10133 20100 53005





000
SAUS45 KMSO 211054
MTRP69
METAR KP69 211052Z AUTO 00000KT 11/09 A2989 RMK AO1 SLP117 P0003
T01060094





000
SAUS45 KMSO 211054
MTRP69
METAR KP69 211052Z AUTO 00000KT 11/09 A2989 RMK AO1 SLP117 P0003
T01060094





000
SAUS45 KMSO 210954
MTRP69
METAR KP69 210952Z AUTO 00000KT 11/09 A2989 RMK AO1 SLP115 T01110089





000
SAUS45 KMSO 210853
MTRP69
METAR KP69 210852Z AUTO 00000KT 13/08 A2989 RMK AO1 SLP110 T01280083
53025





000
SAUS45 KMSO 210754
MTRP69
METAR KP69 210752Z AUTO 00000KT 13/08 A2985 RMK AO1 SLP098 T01280083
402110056





000
SAUS45 KMSO 210654
MTRP69
METAR KP69 210652Z AUTO 00000KT 12/09 A2984 RMK AO1 SLP099 T01220094





000
SAUS45 KMSO 210555
MTRP69
METAR KP69 210552Z AUTO 00000KT 11/09 A2981 RMK AO1 SLP092 T01110094
10150 20106 51029





000
SAUS45 KMSO 210454
MTRP69
METAR KP69 210452Z AUTO 00000KT 11/09 A2979 RMK AO1 SLP090 T01060094





000
SAUS45 KMSO 210454
MTRP69
METAR KP69 210452Z AUTO 00000KT 11/09 A2979 RMK AO1 SLP090 T01060094





000
SAUS45 KMSO 210354
MTRP69
METAR KP69 210352Z AUTO 00000KT 11/10 A2975 RMK AO1 SLP078 T01110100





000
SAUS45 KMSO 210354
MTRP69
METAR KP69 210352Z AUTO 00000KT 11/10 A2975 RMK AO1 SLP078 T01110100





000
SAUS45 KMSO 210254
MTRP69
METAR KP69 210252Z AUTO 00000KT 12/11 A2972 RMK AO1 SLP068 T01220106
53009





000
SAUS45 KMSO 210254
MTRP69
METAR KP69 210252Z AUTO 00000KT 12/11 A2972 RMK AO1 SLP068 T01220106
53009





000
SAUS45 KMSO 210154
MTRP69
METAR KP69 210152Z AUTO 00000KT 12/11 A2971 RMK AO1 SLP062 T01220106





000
SAUS45 KMSO 210154
MTRP69
METAR KP69 210152Z AUTO 00000KT 12/11 A2971 RMK AO1 SLP062 T01220106





000
SAUS45 KMSO 210054
MTRP69
METAR KP69 210052Z AUTO 00000KT 13/11 A2969 RMK AO1 SLP056 T01330111





000
SAUS45 KMSO 202353
MTRP69
METAR KP69 202352Z AUTO 35003KT 15/12 A2969 RMK AO1 SLP054 T01500117
10211 20122 56007





000
SAUS45 KMSO 202253
MTRP69
METAR KP69 202252Z AUTO 36003KT 16/11 A2970 RMK AO1 SLP055 T01560111





000
SAUS45 KMSO 202253
MTRP69
METAR KP69 202252Z AUTO 36003KT 16/11 A2970 RMK AO1 SLP055 T01560111





000
SAUS45 KMSO 202154
MTRP69
METAR KP69 202152Z AUTO 00000KT 16/11 A2970 RMK AO1 SLP053 T01610106





000
SAUS45 KMSO 202154
MTRP69
METAR KP69 202152Z AUTO 00000KT 16/11 A2970 RMK AO1 SLP053 T01610106





000
SAUS45 KMSO 202054
MTRP69
METAR KP69 202052Z AUTO 35003KT 19/09 A2971 RMK AO1 SLP056 T01940089
58040





000
SAUS45 KMSO 201954
MTRP69
METAR KP69 201952Z AUTO 35003KT 18/08 A2975 RMK AO1 SLP071 T01780083





000
SAUS45 KMSO 201854
MTRP69
METAR KP69 201852Z AUTO 00000KT 13/07 A2980 RMK AO1 SLP091 T01330067





000
SAUS45 KMSO 201754
MTRP69
METAR KP69 201752Z AUTO 36005KT 12/06 A2984 RMK AO1 SLP104 T01220061
10122 20056 58022





000
SAUS45 KMSO 201654
MTRP69
METAR KP69 201652Z AUTO 35005KT 09/06 A2987 RMK AO1 SLP119 T00890056





000
SAUS45 KMSO 201554
MTRP69
METAR KP69 201552Z AUTO 34006KT 06/04 A2990 RMK AO1 SLP130 T00560044





000
SAUS45 KMSO 201454
MTRP69
METAR KP69 201452Z AUTO 36003KT 06/04 A2990 RMK AO1 SLP131 T00560044
51003





000
SAUS45 KMSO 201354
MTRP69
METAR KP69 201352Z AUTO 32005KT 06/05 A2990 RMK AO1 SLP131 T00560050





000
SAUS45 KMSO 201253
MTRP69
METAR KP69 201252Z AUTO 33005KT 06/05 A2990 RMK AO1 SLP127 T00610050





000
SAUS45 KMSO 201154
MTRP69
METAR KP69 201152Z AUTO VRB03KT 07/06 A2990 RMK AO1 SLP125 T00670056
10089 20067 53001 $





000
SAUS45 KMSO 201053
MTRP69
METAR KP69 201052Z AUTO VRB05KT 07/06 A2989 RMK AO1 SLP120 T00720061





000
SAUS45 KMSO 201053
MTRP69
METAR KP69 201052Z AUTO VRB05KT 07/06 A2989 RMK AO1 SLP120 T00720061





000
SAUS45 KMSO 200953
MTRP69
METAR KP69 200952Z AUTO VRB03KT 07/07 A2989 RMK AO1 SLP116 T00720067





000
SAUS45 KMSO 200953
MTRP69
METAR KP69 200952Z AUTO VRB03KT 07/07 A2989 RMK AO1 SLP116 T00720067





000
SAUS45 KMSO 200853
MTRP69
METAR KP69 200852Z AUTO 00000KT 08/07 A2989 RMK AO1 SLP117 T00780067
53002





000
SAUS45 KMSO 200754
MTRP69
METAR KP69 200752Z AUTO 00000KT 08/07 A2989 RMK AO1 SLP117 T00780067
402060061





000
SAUS45 KMSO 200754
MTRP69
METAR KP69 200752Z AUTO 00000KT 08/07 A2989 RMK AO1 SLP117 T00780067
402060061





000
SAUS45 KMSO 200654
MTRP69
METAR KP69 200652Z AUTO 33003KT 08/07 A2989 RMK AO1 SLP119 T00830072





000
SAUS45 KMSO 200554
MTRP69
METAR KP69 200552Z AUTO 00000KT 09/08 A2989 RMK AO1 SLP121 T00890078
10133 20089 51005





000
SAUS45 KMSO 200454
MTRP69
METAR KP69 200452Z AUTO 34004KT 09/08 A2988 RMK AO1 SLP122 T00890078





000
SAUS45 KMSO 200354
MTRP69
METAR KP69 200352Z AUTO 00000KT 09/09 A2988 RMK AO1 SLP124 T00940089





000
SAUS45 KMSO 200254
MTRP69
METAR KP69 200252Z AUTO 00000KT 11/09 A2987 RMK AO1 SLP120 T01060094
51013





000
SAUS45 KMSO 200154
MTRP69
METAR KP69 200152Z AUTO 35004KT 11/10 A2986 RMK AO1 SLP117 T01110100





000
SAUS45 KMSO 200054
MTRP69
METAR KP69 200052Z AUTO 33003KT 13/11 A2984 RMK AO1 SLP107 T01280106





000
SAUS45 KMSO 192354
MTRP69
METAR KP69 192352Z AUTO 36004KT 13/11 A2983 RMK AO1 SLP102 T01330106
10206 20117 56017





000
SAUS45 KMSO 192354
MTRP69
METAR KP69 192352Z AUTO 36004KT 13/11 A2983 RMK AO1 SLP102 T01330106
10206 20117 56017





000
SAUS45 KMSO 192254
MTRP69
METAR KP69 192252Z AUTO 01003KT 16/10 A2983 RMK AO1 SLP100 T01560100





000
SAUS45 KMSO 192254
MTRP69
METAR KP69 192252Z AUTO 01003KT 16/10 A2983 RMK AO1 SLP100 T01560100





000
SAUS45 KMSO 192154
MTRP69
METAR KP69 192152Z AUTO 35003KT 19/11 A2985 RMK AO1 SLP103 T01890106





000
SAUS45 KMSO 192154
MTRP69
METAR KP69 192152Z AUTO 35003KT 19/11 A2985 RMK AO1 SLP103 T01890106





000
SAUS45 KMSO 192054
MTRP69
METAR KP69 192052Z AUTO 35004KT 19/09 A2988 RMK AO1 SLP114 T01890094
58041





000
SAUS45 KMSO 191954
MTRP69
METAR KP69 191952Z AUTO VRB03KT 18/09 A2992 RMK AO1 SLP128 T01780089





000
SAUS45 KMSO 191854
MTRP69
METAR KP69 191852Z AUTO 00000KT 14/07 A2998 RMK AO1 SLP150 T01440072





000
SAUS45 KMSO 191754
MTRP69
METAR KP69 191752Z AUTO 36004KT 12/07 A3001 RMK AO1 SLP164 T01170072
10117 20061 58017





000
SAUS45 KMSO 191654
MTRP69
METAR KP69 191652Z AUTO 32004KT 09/06 A3004 RMK AO1 SLP175 T00940061





000
SAUS45 KMSO 191554
MTRP69
METAR KP69 191552Z AUTO 00000KT 06/05 A3006 RMK AO1 SLP187 T00610050





000
SAUS45 KMSO 191454
MTRP69
METAR KP69 191452Z AUTO VRB04KT 06/05 A3006 RMK AO1 SLP184 T00610050
53001





000
SAUS45 KMSO 191354
MTRP69
METAR KP69 191352Z AUTO 00000KT 07/05 A3005 RMK AO1 SLP182 T00670050





000
SAUS45 KMSO 191254
MTRP69
METAR KP69 191252Z AUTO 00000KT 07/06 A3005 RMK AO1 SLP179 T00670056





000
SAUS45 KMSO 191154
MTRP69
METAR KP69 191152Z AUTO 00000KT 07/06 A3005 RMK AO1 SLP179 T00720061
10083 20072 57004





000
SAUS45 KMSO 191054
MTRP69
METAR KP69 191052Z AUTO 00000KT 07/07 A3006 RMK AO1 SLP178 T00720067





000
SAUS45 KMSO 190954
MTRP69
METAR KP69 190952Z AUTO 00000KT 08/07 A3006 RMK AO1 SLP175 T00780067





000
SAUS45 KMSO 190954
MTRP69
METAR KP69 190952Z AUTO 00000KT 08/07 A3006 RMK AO1 SLP175 T00780067





    US Dept of Commerce
    National Oceanic and Atmospheric Administration
    National Weather Service
    1325 East West Highway
    Silver Spring, MD 20910
    Page Author: NWS Internet Services Team
Disclaimer
Information Quality
Credits
Glossary
Privacy Policy
Freedom of Information Act (FOIA)
About Us
Career Opportunities